createdAt,value
2023-02-14T00:00:50.694Z,64.86
2023-02-14T00:01:50.765Z,66.66
2023-02-14T00:02:50.854Z,65.52
2023-02-14T00:03:50.890Z,64.43
2023-02-14T01:19:56.110Z,105.68
2023-02-14T01:20:56.144Z,104.59
2023-02-14T01:21:56.219Z,105.93
2023-02-14T01:22:56.295Z,105.35
2023-02-14T01:23:56.355Z,104.94
2023-02-14T01:24:56.400Z,103.66
2023-02-14T01:25:56.468Z,104.04
2023-02-14T01:26:56.478Z,102.61
2023-02-14T01:27:56.573Z,104.34
2023-02-14T01:28:56.642Z,102.48
2023-02-14T01:29:56.712Z,101.13
2023-02-14T01:30:56.834Z,103.11
2023-02-14T01:31:56.905Z,99.75
2023-02-14T01:32:56.864Z,100.31
2023-02-14T01:33:56.986Z,100.79
2023-02-14T01:34:57.017Z,102.37
2023-02-14T01:35:57.057Z,100.84
2023-02-14T01:36:57.135Z,100.43
2023-02-14T01:37:57.164Z,99.47
2023-02-14T01:38:57.244Z,98.36
2023-02-14T01:39:57.325Z,99.68
2023-02-14T01:40:57.675Z,99.26
2023-02-14T01:41:57.452Z,101.27
2023-02-14T01:42:57.490Z,98.81
2023-02-14T01:43:57.575Z,98.92
2023-02-14T01:44:57.609Z,97.50
2023-02-14T01:45:57.732Z,98.74
2023-02-14T01:46:57.735Z,97.92
2023-02-14T01:47:57.882Z,100.08
2023-02-14T01:48:57.913Z,98.37
2023-02-14T01:49:57.955Z,99.63
2023-02-14T01:50:58.377Z,96.25
2023-02-14T01:51:58.050Z,97.04
2023-02-14T01:52:58.128Z,101.25
2023-02-14T01:53:58.206Z,98.37
2023-02-14T01:54:58.256Z,96.20
2023-02-14T01:55:58.294Z,93.80
2023-02-14T01:56:58.365Z,96.01
2023-02-14T01:57:58.438Z,94.94
2023-02-14T01:58:58.487Z,94.09
2023-02-14T01:59:58.538Z,98.10
2023-02-14T02:00:59.191Z,95.22
2023-02-14T02:01:58.694Z,91.95
2023-02-14T02:02:58.693Z,94.78
2023-02-14T02:03:58.716Z,95.23
2023-02-14T02:04:58.787Z,95.13
2023-02-14T02:05:58.839Z,94.14
2023-02-14T02:06:58.902Z,93.19
2023-02-14T02:07:58.961Z,93.45
2023-02-14T02:08:59.016Z,92.95
2023-02-14T02:09:59.035Z,95.67
2023-02-14T02:10:59.424Z,92.36
2023-02-14T02:11:59.175Z,92.85
2023-02-14T02:12:59.251Z,92.39
2023-02-14T02:13:59.307Z,92.64
2023-02-14T02:14:59.335Z,96.12
2023-02-14T02:15:59.421Z,92.73
2023-02-14T02:16:59.512Z,93.66
2023-02-14T02:17:59.493Z,93.28
2023-02-14T02:18:59.582Z,95.21
2023-02-14T02:19:59.621Z,92.07
2023-02-14T02:20:59.938Z,95.19
2023-02-14T02:21:59.684Z,94.05
2023-02-14T02:22:59.737Z,94.21
2023-02-14T02:23:59.775Z,94.60
2023-02-14T02:24:59.811Z,91.33
2023-02-14T02:25:59.838Z,89.20
2023-02-14T02:26:59.902Z,89.42
2023-02-14T02:27:59.933Z,92.50
2023-02-14T02:29:00.027Z,91.35
2023-02-14T02:30:00.101Z,92.13
2023-02-14T02:31:00.524Z,92.74
2023-02-14T02:32:00.268Z,88.31
2023-02-14T02:33:00.215Z,92.11
2023-02-14T02:34:00.265Z,93.07
2023-02-14T02:35:00.249Z,89.97
2023-02-14T02:36:00.297Z,89.76
2023-02-14T02:37:00.301Z,88.46
2023-02-14T02:38:00.347Z,90.17
2023-02-14T02:39:00.403Z,90.86
2023-02-14T02:40:00.415Z,88.17
2023-02-14T02:41:00.819Z,87.27
2023-02-14T02:42:00.466Z,92.10
2023-02-14T02:43:00.495Z,90.77
2023-02-14T02:44:01.878Z,87.30
2023-02-14T02:45:00.564Z,92.35
2023-02-14T02:46:00.585Z,89.69
2023-02-14T02:48:00.592Z,89.37
2023-02-14T02:49:00.581Z,87.82
2023-02-14T02:50:00.613Z,90.84
2023-02-14T02:51:00.937Z,87.92
2023-02-14T02:52:00.641Z,91.13
2023-02-14T02:53:00.636Z,89.81
2023-02-14T02:54:00.650Z,89.32
2023-02-14T02:55:00.648Z,88.45
2023-02-14T02:56:00.632Z,88.73
2023-02-14T02:57:00.624Z,88.71
2023-02-14T02:58:00.591Z,83.56
2023-02-14T02:59:00.638Z,87.45
2023-02-14T03:00:00.635Z,85.09
2023-02-14T03:01:01.051Z,87.58
2023-02-14T03:02:00.632Z,84.80
2023-02-14T03:03:00.772Z,83.45
2023-02-14T03:04:00.642Z,89.98
2023-02-14T03:05:00.685Z,85.46
2023-02-14T03:06:00.633Z,82.42
2023-02-14T03:07:00.651Z,85.00
2023-02-14T03:08:00.643Z,83.65
2023-02-14T03:09:00.652Z,81.57
2023-02-14T03:10:00.626Z,86.10
2023-02-14T03:11:01.017Z,84.82
2023-02-14T03:12:00.661Z,83.21
2023-02-14T03:13:00.672Z,84.97
2023-02-14T03:14:00.675Z,85.65
2023-02-14T03:15:00.692Z,84.18
2023-02-14T03:16:00.685Z,84.41
2023-02-14T03:17:00.692Z,85.63
2023-02-14T03:18:00.731Z,81.27
2023-02-14T03:19:00.671Z,83.81
2023-02-14T03:20:00.711Z,83.76
2023-02-14T03:21:01.080Z,82.56
2023-02-14T03:22:00.687Z,85.03
2023-02-14T03:23:00.751Z,83.44
2023-02-14T03:24:00.702Z,85.24
2023-02-14T03:25:00.685Z,84.88
2023-02-14T03:26:00.717Z,85.90
2023-02-14T03:27:00.718Z,81.44
2023-02-14T03:28:00.702Z,82.48
2023-02-14T03:29:00.740Z,84.09
2023-02-14T03:30:00.770Z,83.95
2023-02-14T03:31:01.138Z,82.38
2023-02-14T03:32:00.869Z,82.36
2023-02-14T03:33:00.715Z,84.20
2023-02-14T03:34:00.787Z,80.40
2023-02-14T03:35:00.734Z,82.53
2023-02-14T03:36:00.720Z,80.80
2023-02-14T03:37:00.748Z,82.26
2023-02-14T03:38:00.757Z,80.54
2023-02-14T03:39:00.740Z,80.10
2023-02-14T03:40:00.767Z,78.95
2023-02-14T03:41:01.091Z,81.10
2023-02-14T03:42:00.778Z,78.17
2023-02-14T03:43:00.777Z,81.69
2023-02-14T03:44:00.759Z,79.90
2023-02-14T03:45:00.836Z,79.36
2023-02-14T03:46:00.799Z,80.40
2023-02-14T03:47:00.773Z,81.38
2023-02-14T03:48:00.765Z,79.58
2023-02-14T03:49:00.779Z,79.74
2023-02-14T03:50:00.751Z,79.29
2023-02-14T03:51:01.097Z,80.06
2023-02-14T03:52:00.791Z,76.34
2023-02-14T03:53:00.758Z,76.96
2023-02-14T03:54:00.805Z,78.30
2023-02-14T03:55:00.762Z,78.07
2023-02-14T03:56:00.778Z,81.31
2023-02-14T03:57:00.748Z,78.95
2023-02-14T03:58:00.784Z,76.92
2023-02-14T03:59:00.744Z,78.66
2023-02-14T04:00:00.765Z,76.32
2023-02-14T04:01:01.193Z,77.29
2023-02-14T04:02:00.802Z,75.68
2023-02-14T04:18:00.822Z,71.33
2023-02-14T04:19:00.967Z,74.65
2023-02-14T04:20:00.958Z,75.91
2023-02-14T04:21:01.402Z,72.26
2023-02-14T04:22:01.138Z,72.25
2023-02-14T04:23:03.341Z,73.50
2023-02-14T04:24:01.154Z,71.19
2023-02-14T04:25:01.181Z,74.35
2023-02-14T04:26:01.258Z,75.15
2023-02-14T04:27:01.288Z,71.52
2023-02-14T04:28:01.350Z,73.82
2023-02-14T04:29:01.385Z,72.68
2023-02-14T04:30:01.462Z,73.14
2023-02-14T04:31:02.013Z,69.53
2023-02-14T04:32:01.605Z,73.36
2023-02-14T04:33:01.483Z,74.83
2023-02-14T04:34:01.492Z,72.79
2023-02-14T04:35:01.500Z,72.74
2023-02-14T04:36:01.519Z,71.15
2023-02-14T04:37:01.591Z,69.74
2023-02-14T04:38:01.601Z,69.95
2023-02-14T04:39:01.672Z,74.58
2023-02-14T04:40:01.665Z,71.82
2023-02-14T04:41:02.142Z,69.57
2023-02-14T04:42:01.704Z,69.69
2023-02-14T04:43:01.771Z,70.38
2023-02-14T04:44:01.792Z,68.11
2023-02-14T04:45:04.116Z,67.65
2023-02-14T04:46:01.939Z,67.64
2023-02-14T04:47:01.961Z,70.56
2023-02-14T04:48:02.013Z,68.63
2023-02-14T04:49:02.053Z,69.31
2023-02-14T04:50:02.087Z,66.46
2023-02-14T04:51:02.305Z,67.49
2023-02-14T04:52:02.142Z,67.41
2023-02-14T04:53:02.169Z,70.42
2023-02-14T04:54:02.236Z,70.19
2023-02-14T04:55:02.235Z,69.79
2023-02-14T04:56:02.257Z,64.77
2023-02-14T04:57:02.320Z,66.64
2023-02-14T04:58:02.374Z,65.98
2023-02-14T04:59:02.401Z,66.50
2023-02-14T05:00:02.420Z,66.30
2023-02-14T05:01:03.055Z,65.29
2023-02-14T05:02:02.485Z,66.64
2023-02-14T05:03:02.443Z,65.34
2023-02-14T05:04:02.499Z,61.93
2023-02-14T05:05:02.457Z,65.82
2023-02-14T05:06:02.527Z,60.87
2023-02-14T05:07:02.505Z,64.18
2023-02-14T05:08:02.511Z,60.88
2023-02-14T05:09:02.528Z,60.69
2023-02-14T05:10:02.525Z,61.29
2023-02-14T05:11:02.581Z,61.01
2023-02-14T05:12:02.596Z,59.82
2023-02-14T05:13:02.552Z,60.42
2023-02-14T05:14:02.575Z,62.18
2023-02-14T05:15:02.587Z,58.91
2023-02-14T05:16:02.702Z,61.12
2023-02-14T05:17:02.605Z,59.43
2023-02-14T05:18:02.657Z,58.93
2023-02-14T05:19:02.664Z,63.84
2023-02-14T05:20:02.645Z,62.49
2023-02-14T05:21:02.761Z,60.23
2023-02-14T05:22:02.650Z,62.34
2023-02-14T05:23:02.693Z,59.58
2023-02-14T05:24:02.701Z,63.99
2023-02-14T05:25:02.685Z,61.47
2023-02-14T05:26:02.718Z,59.36
2023-02-14T05:27:02.779Z,61.84
2023-02-14T05:28:02.755Z,59.93
2023-02-14T05:29:02.763Z,60.76
2023-02-14T05:30:02.890Z,64.56
2023-02-14T05:31:03.362Z,58.85
2023-02-14T05:32:02.802Z,60.13
2023-02-14T05:33:03.721Z,64.40
2023-02-14T05:34:02.847Z,61.28
2023-02-14T05:35:02.878Z,60.69
2023-02-14T05:36:02.895Z,59.83
2023-02-14T05:37:02.922Z,57.83
2023-02-14T05:38:02.897Z,60.53
2023-02-14T05:39:02.967Z,58.70
2023-02-14T05:40:02.963Z,64.00
2023-02-14T05:41:02.978Z,64.80
2023-02-14T05:42:02.985Z,63.15
2023-02-14T05:43:03.022Z,64.43
2023-02-14T05:44:03.032Z,63.12
2023-02-14T05:45:03.049Z,63.72
2023-02-14T05:46:03.119Z,63.40
2023-02-14T05:47:03.058Z,63.76
2023-02-14T05:48:03.069Z,64.19
2023-02-14T05:49:03.096Z,64.97
2023-02-14T05:50:03.137Z,63.51
2023-02-14T05:51:03.136Z,63.80
2023-02-14T05:52:03.149Z,65.11
2023-02-14T05:53:03.266Z,65.93
2023-02-14T05:54:03.183Z,65.55
2023-02-14T05:55:03.166Z,66.47
2023-02-14T05:56:03.204Z,66.00
2023-02-14T05:57:03.212Z,66.80
2023-02-14T05:58:03.234Z,66.69
2023-02-14T05:59:03.229Z,67.94
2023-02-14T06:01:22.198Z,25.00
2023-02-14T06:02:22.236Z,25.00
2023-02-14T06:03:22.199Z,25.00
2023-02-14T06:04:22.283Z,25.00
2023-02-14T06:05:22.141Z,25.00
2023-02-14T06:06:22.162Z,28.85
2023-02-14T06:07:22.172Z,26.68
2023-02-14T06:08:22.147Z,25.00
2023-02-14T06:09:22.142Z,26.32
2023-02-14T06:10:22.103Z,27.51
2023-02-14T06:11:22.097Z,31.76
2023-02-14T06:12:22.109Z,29.11
2023-02-14T06:13:22.032Z,27.76
2023-02-14T06:14:22.042Z,30.12
2023-02-14T06:15:22.024Z,29.22
2023-02-14T06:16:22.017Z,26.87
2023-02-14T06:17:21.995Z,27.70
2023-02-14T06:18:21.922Z,27.31
2023-02-14T06:19:21.952Z,25.00
2023-02-14T06:20:21.906Z,29.60
2023-02-14T06:21:21.891Z,29.59
2023-02-14T06:22:21.926Z,27.88
2023-02-14T06:23:21.862Z,28.47
2023-02-14T06:24:21.888Z,28.88
2023-02-14T06:25:21.850Z,30.03
2023-02-14T06:26:21.805Z,29.76
2023-02-14T06:27:21.871Z,26.75
2023-02-14T06:28:21.802Z,29.67
2023-02-14T06:29:21.816Z,30.58
2023-02-14T06:30:21.826Z,29.15
2023-02-14T06:31:21.826Z,31.12
2023-02-14T06:32:21.723Z,27.16
2023-02-14T06:33:21.848Z,30.06
2023-02-14T06:34:21.737Z,30.21
2023-02-14T06:35:21.709Z,30.98
2023-02-14T06:36:21.655Z,31.44
2023-02-14T06:37:21.613Z,27.11
2023-02-14T06:38:21.659Z,28.54
2023-02-14T06:39:21.651Z,29.26
2023-02-14T06:40:21.603Z,29.39
2023-02-14T06:41:21.590Z,29.91
2023-02-14T06:42:21.563Z,29.41
2023-02-14T06:43:21.581Z,30.69
2023-02-14T06:44:21.566Z,28.99
2023-02-14T06:45:21.545Z,29.86
2023-02-14T06:46:21.598Z,30.49
2023-02-14T06:47:21.487Z,34.36
2023-02-14T06:48:21.485Z,26.90
2023-02-14T06:49:21.496Z,29.17
2023-02-14T06:50:21.473Z,25.59
2023-02-14T06:51:21.431Z,28.10
2023-02-14T06:52:21.411Z,30.00
2023-02-14T06:53:21.441Z,27.27
2023-02-14T06:54:21.435Z,30.35
2023-02-14T06:55:21.391Z,25.73
2023-02-14T06:56:21.409Z,30.15
2023-02-14T06:57:21.341Z,29.58
2023-02-14T06:58:21.359Z,28.69
2023-02-14T06:59:21.361Z,29.94
2023-02-14T07:00:21.307Z,30.05
2023-02-14T07:01:21.349Z,27.87
2023-02-14T07:02:24.285Z,27.12
2023-02-14T07:03:21.276Z,34.15
2023-02-14T07:04:21.284Z,34.58
2023-02-14T07:05:21.300Z,28.86
2023-02-14T07:06:21.244Z,29.20
2023-02-14T07:07:21.218Z,29.57
2023-02-14T07:08:21.205Z,30.51
2023-02-14T07:09:21.198Z,25.88
2023-02-14T07:10:21.180Z,33.64
2023-02-14T07:11:21.174Z,29.99
2023-02-14T07:12:21.167Z,29.38
2023-02-14T07:13:21.193Z,30.35
2023-02-14T07:14:21.163Z,31.50
2023-02-14T07:15:21.160Z,32.75
2023-02-14T07:16:21.142Z,32.04
2023-02-14T07:17:21.121Z,32.15
2023-02-14T07:18:21.113Z,28.54
2023-02-14T07:19:21.086Z,32.41
2023-02-14T07:20:21.148Z,32.49
2023-02-14T07:21:21.077Z,28.75
2023-02-14T07:22:21.064Z,30.19
2023-02-14T07:23:21.040Z,29.07
2023-02-14T07:24:21.027Z,32.70
2023-02-14T07:25:21.064Z,30.85
2023-02-14T07:26:20.979Z,28.80
2023-02-14T07:27:20.986Z,31.83
2023-02-14T07:28:20.980Z,30.44
2023-02-14T07:29:20.961Z,31.35
2023-02-14T07:30:21.115Z,31.82
2023-02-14T07:38:20.847Z,32.83
2023-02-14T07:39:20.856Z,37.11
2023-02-14T07:40:20.810Z,35.52
2023-02-14T07:41:20.829Z,33.19
2023-02-14T07:42:20.788Z,36.21
2023-02-14T07:43:20.784Z,34.35
2023-02-14T07:44:20.793Z,36.62
2023-02-14T07:45:22.166Z,35.82
2023-02-14T07:46:20.795Z,37.85
2023-02-14T07:47:20.725Z,37.03
2023-02-14T07:48:20.708Z,38.38
2023-02-14T07:49:20.715Z,40.50
2023-02-14T07:50:20.716Z,37.41
2023-02-14T07:51:20.690Z,34.78
2023-02-14T07:52:20.708Z,36.42
2023-02-14T07:53:20.640Z,39.34
2023-02-14T07:55:20.659Z,37.67
2023-02-14T07:56:20.576Z,38.37
2023-02-14T07:57:20.604Z,37.91
2023-02-14T07:58:20.636Z,36.14
2023-02-14T07:59:20.661Z,36.12
2023-02-14T08:00:20.564Z,34.41
2023-02-14T08:01:20.573Z,35.33
2023-02-14T08:02:20.532Z,37.19
2023-02-14T08:03:20.514Z,37.44
2023-02-14T08:04:20.557Z,37.09
2023-02-14T08:05:20.569Z,37.73
2023-02-14T08:06:20.495Z,37.65
2023-02-14T08:07:21.436Z,36.27
2023-02-14T08:08:20.473Z,39.24
2023-02-14T08:09:20.459Z,41.54
2023-02-14T08:10:20.439Z,38.17
2023-02-14T08:11:20.429Z,37.85
2023-02-14T08:12:20.391Z,36.11
2023-02-14T08:13:20.448Z,36.27
2023-02-14T08:14:20.363Z,37.11
2023-02-14T08:15:20.341Z,36.03
2023-02-14T08:16:20.340Z,35.26
2023-02-14T08:17:20.299Z,38.38
2023-02-14T08:18:20.281Z,37.28
2023-02-14T08:19:20.319Z,35.68
2023-02-14T08:20:20.263Z,35.93
2023-02-14T08:21:20.250Z,37.28
2023-02-14T08:22:20.248Z,32.61
2023-02-14T08:23:20.259Z,32.49
2023-02-14T08:24:20.231Z,32.91
2023-02-14T08:25:20.275Z,37.90
2023-02-14T08:26:20.180Z,41.85
2023-02-14T08:27:20.180Z,39.96
2023-02-14T08:28:20.950Z,44.47
2023-02-14T08:29:20.146Z,41.16
2023-02-14T08:30:20.253Z,43.14
2023-02-14T08:31:29.986Z,45.58
2023-02-14T08:32:21.302Z,45.76
2023-02-14T08:33:20.100Z,44.96
2023-02-14T08:34:20.093Z,45.60
2023-02-14T08:35:20.075Z,43.87
2023-02-14T08:36:20.056Z,46.92
2023-02-14T08:37:20.110Z,43.62
2023-02-14T08:38:20.073Z,42.94
2023-02-14T08:39:20.036Z,41.55
2023-02-14T08:40:20.005Z,44.26
2023-02-14T08:41:19.996Z,41.42
2023-02-14T08:42:20.013Z,43.46
2023-02-14T08:43:20.038Z,40.58
2023-02-14T08:44:19.952Z,40.59
2023-02-14T08:45:19.948Z,39.67
2023-02-14T08:46:19.973Z,36.92
2023-02-14T08:47:19.947Z,36.83
2023-02-14T08:48:19.900Z,38.92
2023-02-14T08:49:19.876Z,35.75
2023-02-14T08:50:19.887Z,35.86
2023-02-14T08:51:19.867Z,37.69
2023-02-14T08:52:19.843Z,35.45
2023-02-14T08:53:19.821Z,36.85
2023-02-14T08:54:19.815Z,38.57
2023-02-14T08:55:19.762Z,41.11
2023-02-14T08:56:19.762Z,43.96
2023-02-14T08:57:19.792Z,47.74
2023-02-14T08:58:19.763Z,45.96
2023-02-14T08:59:19.725Z,52.19
2023-02-14T09:00:19.727Z,51.37
2023-02-14T09:01:19.799Z,48.94
2023-02-14T09:02:19.693Z,48.00
2023-02-14T09:03:19.677Z,49.50
2023-02-14T09:04:19.682Z,51.84
2023-02-14T09:05:19.664Z,55.50
2023-02-14T09:06:19.608Z,55.33
2023-02-14T09:07:19.613Z,61.91
2023-02-14T09:08:19.577Z,70.35
2023-02-14T09:09:19.584Z,80.41
2023-02-14T09:10:19.552Z,88.24
2023-02-14T09:11:19.555Z,94.89
2023-02-14T09:12:19.580Z,101.63
2023-02-14T09:13:19.538Z,104.19
2023-02-14T09:14:19.567Z,107.49
2023-02-14T09:15:19.623Z,101.00
2023-02-14T09:16:19.597Z,98.93
2023-02-14T09:17:19.535Z,97.14
2023-02-14T09:18:19.547Z,94.68
2023-02-14T09:19:19.516Z,98.53
2023-02-14T09:20:19.593Z,95.00
2023-02-14T09:21:19.529Z,87.95
2023-02-14T09:22:19.531Z,85.62
2023-02-14T09:23:19.499Z,87.31
2023-02-14T09:24:19.539Z,88.05
2023-02-14T09:25:19.529Z,83.91
2023-02-14T09:26:19.541Z,86.02
2023-02-14T09:27:19.547Z,83.40
2023-02-14T09:28:19.534Z,85.31
2023-02-14T09:29:19.551Z,81.02
2023-02-14T09:30:19.579Z,82.45
2023-02-14T09:31:19.633Z,80.62
2023-02-14T09:32:19.582Z,77.64
2023-02-14T09:33:19.591Z,76.54
2023-02-14T09:34:19.564Z,74.71
2023-02-14T09:35:19.545Z,77.00
2023-02-14T09:36:19.585Z,73.18
2023-02-14T09:37:19.543Z,72.25
2023-02-14T09:38:19.524Z,66.59
2023-02-14T09:39:19.533Z,71.84
2023-02-14T09:40:19.516Z,68.53
2023-02-14T09:41:19.516Z,72.79
2023-02-14T09:42:19.551Z,64.36
2023-02-14T09:43:19.543Z,62.96
2023-02-14T09:44:19.551Z,62.70
2023-02-14T09:45:19.538Z,62.73
2023-02-14T09:46:19.608Z,58.55
2023-02-14T09:47:19.499Z,59.00
2023-02-14T09:48:19.515Z,57.93
2023-02-14T09:49:19.616Z,59.20
2023-02-14T09:50:19.557Z,57.86
2023-02-14T09:51:19.528Z,58.71
2023-02-14T09:52:19.516Z,56.17
2023-02-14T09:53:19.536Z,57.93
2023-02-14T09:54:19.530Z,60.61
2023-02-14T09:55:19.540Z,58.55
2023-02-14T09:56:19.542Z,61.58
2023-02-14T09:57:19.495Z,59.88
2023-02-14T09:58:19.518Z,61.63
2023-02-14T09:59:19.532Z,60.83
2023-02-14T10:00:19.526Z,62.08
2023-02-14T10:01:19.565Z,60.39
2023-02-14T10:02:19.513Z,62.38
2023-02-14T10:03:19.504Z,59.41
2023-02-14T10:04:19.485Z,60.38
2023-02-14T10:05:19.499Z,59.52
2023-02-14T10:06:19.470Z,58.80
2023-02-14T10:07:19.433Z,58.21
2023-02-14T10:08:19.433Z,61.51
2023-02-14T10:09:19.431Z,58.88
2023-02-14T10:10:19.426Z,58.29
2023-02-14T10:11:19.419Z,59.53
2023-02-14T10:12:19.405Z,58.60
2023-02-14T10:13:19.420Z,54.09
2023-02-14T10:14:19.407Z,58.79
2023-02-14T10:15:19.419Z,55.84
2023-02-14T10:16:19.472Z,57.96
2023-02-14T10:17:19.397Z,59.02
2023-02-14T10:18:19.381Z,54.07
2023-02-14T10:19:19.400Z,52.78
2023-02-14T10:20:19.448Z,56.43
2023-02-14T10:21:19.365Z,54.16
2023-02-14T10:22:19.385Z,54.46
2023-02-14T10:23:19.369Z,54.56
2023-02-14T10:24:19.382Z,56.34
2023-02-14T10:25:19.350Z,56.41
2023-02-14T10:26:19.411Z,59.57
2023-02-14T10:27:19.334Z,57.81
2023-02-14T10:28:19.342Z,56.49
2023-02-14T10:29:19.348Z,56.45
2023-02-14T10:30:19.425Z,55.96
2023-02-14T10:31:19.522Z,57.32
2023-02-14T10:32:19.428Z,56.89
2023-02-14T10:33:19.401Z,57.59
2023-02-14T10:34:19.445Z,56.69
2023-02-14T10:35:19.457Z,56.04
2023-02-14T10:36:19.471Z,56.84
2023-02-14T10:37:19.500Z,60.09
2023-02-14T10:38:19.544Z,60.23
2023-02-14T10:39:19.556Z,66.17
2023-02-14T10:40:19.553Z,63.04
2023-02-14T10:41:19.558Z,69.45
2023-02-14T10:42:19.576Z,70.60
2023-02-14T10:43:19.575Z,74.02
2023-02-14T10:44:19.586Z,79.54
2023-02-14T10:45:19.623Z,87.84
2023-02-14T10:46:19.673Z,88.51
2023-02-14T10:47:19.629Z,83.91
2023-02-14T10:48:19.661Z,84.69
2023-02-14T10:49:19.685Z,83.38
2023-02-14T10:50:19.716Z,83.19
2023-02-14T10:51:19.687Z,83.56
2023-02-14T10:52:19.727Z,82.68
2023-02-14T10:53:19.795Z,80.93
2023-02-14T10:54:19.817Z,77.27
2023-02-14T10:55:31.395Z,75.95
2023-02-14T10:56:20.832Z,76.25
2023-02-14T10:57:19.767Z,73.54
2023-02-14T10:58:19.745Z,75.59
2023-02-14T10:59:19.736Z,76.06
2023-02-14T11:00:19.737Z,73.58
2023-02-14T11:01:19.754Z,72.54
2023-02-14T11:02:19.678Z,74.94
2023-02-14T11:03:19.694Z,74.75
2023-02-14T11:04:19.657Z,71.69
2023-02-14T11:05:19.669Z,73.69
2023-02-14T11:06:19.637Z,76.84
2023-02-14T11:07:19.613Z,76.84
2023-02-14T11:08:19.578Z,75.07
2023-02-14T11:09:19.627Z,76.47
2023-02-14T11:10:19.553Z,72.07
2023-02-14T11:11:19.561Z,72.85
2023-02-14T11:12:19.522Z,71.06
2023-02-14T11:13:19.520Z,71.25
2023-02-14T11:15:19.479Z,78.96
2023-02-14T11:16:19.562Z,78.68
2023-02-14T11:17:19.541Z,72.05
2023-02-14T11:18:19.618Z,75.99
2023-02-14T11:19:19.660Z,74.39
2023-02-14T11:20:19.694Z,74.90
2023-02-14T11:21:19.672Z,78.48
2023-02-14T11:22:19.643Z,79.39
2023-02-14T11:23:19.703Z,76.26
2023-02-14T11:24:19.736Z,74.05
2023-02-14T11:25:19.781Z,75.21
2023-02-14T11:26:19.817Z,75.06
2023-02-14T11:27:19.840Z,78.99
2023-02-14T11:28:19.899Z,81.06
2023-02-14T11:29:19.924Z,83.89
2023-02-14T11:30:20.002Z,87.75
2023-02-14T11:31:20.041Z,84.91
2023-02-14T11:32:19.984Z,86.80
2023-02-14T11:33:19.968Z,85.52
2023-02-14T11:34:19.986Z,88.61
2023-02-14T11:35:20.092Z,92.58
2023-02-14T11:36:20.017Z,87.58
2023-02-14T11:37:20.029Z,85.72
2023-02-14T11:38:20.025Z,84.60
2023-02-14T11:39:21.887Z,81.74
2023-02-14T11:40:20.085Z,83.98
2023-02-14T11:41:20.120Z,84.85
2023-02-14T11:42:20.125Z,84.37
2023-02-14T11:43:20.157Z,82.57
2023-02-14T11:44:20.240Z,85.63
2023-02-14T11:45:20.222Z,80.17
2023-02-14T11:46:20.323Z,78.07
2023-02-14T11:47:20.312Z,74.46
2023-02-14T11:48:31.413Z,77.46
2023-02-14T11:49:21.297Z,77.50
2023-02-14T11:50:20.285Z,73.57
2023-02-14T11:51:20.253Z,67.29
2023-02-14T11:52:20.241Z,67.94
2023-02-14T11:53:20.247Z,65.78
2023-02-14T11:54:20.221Z,63.25
2023-02-14T11:55:20.194Z,60.61
2023-02-14T11:56:20.225Z,57.14
2023-02-14T11:57:20.175Z,51.10
2023-02-14T11:58:20.126Z,55.78
2023-02-14T11:59:20.138Z,56.61
2023-02-14T12:00:20.151Z,57.84
2023-02-14T12:01:20.092Z,45.33
2023-02-14T12:02:20.109Z,45.21
2023-02-14T12:03:20.236Z,49.37
2023-02-14T12:04:20.073Z,52.60
2023-02-14T12:05:20.055Z,54.85
2023-02-14T12:06:20.022Z,53.29
2023-02-14T12:07:20.001Z,51.90
2023-02-14T12:08:19.997Z,51.21
2023-02-14T12:09:20.083Z,51.37
2023-02-14T12:10:20.049Z,47.86
2023-02-14T12:11:20.104Z,47.03
2023-02-14T12:12:20.139Z,48.94
2023-02-14T12:13:20.132Z,48.06
2023-02-14T12:14:20.136Z,46.22
2023-02-14T12:15:20.143Z,43.97
2023-02-14T12:16:20.184Z,47.43
2023-02-14T12:17:20.263Z,46.56
2023-02-14T12:18:20.218Z,51.93
2023-02-14T12:19:20.207Z,51.52
2023-02-14T12:20:20.217Z,54.70
2023-02-14T12:21:20.272Z,56.67
2023-02-14T12:22:20.291Z,58.74
2023-02-14T12:23:20.306Z,62.98
2023-02-14T12:24:20.358Z,59.16
2023-02-14T12:25:20.351Z,60.89
2023-02-14T12:26:20.346Z,62.57
2023-02-14T12:27:20.366Z,58.77
2023-02-14T12:28:20.458Z,60.55
2023-02-14T12:29:20.437Z,58.94
2023-02-14T12:30:20.497Z,57.01
2023-02-14T12:31:20.640Z,57.10
2023-02-14T12:32:20.566Z,50.04
2023-02-14T12:33:20.504Z,49.20
2023-02-14T12:34:20.529Z,47.36
2023-02-14T12:35:20.504Z,46.40
2023-02-14T12:36:20.510Z,43.13
2023-02-14T12:37:20.619Z,43.58
2023-02-14T12:38:20.513Z,40.33
2023-02-14T12:39:20.513Z,42.49
2023-02-14T12:40:20.583Z,41.41
2023-02-14T12:41:20.592Z,38.33
2023-02-14T12:42:20.609Z,39.66
2023-02-14T12:43:20.613Z,40.23
2023-02-14T12:44:20.610Z,37.61
2023-02-14T12:45:20.605Z,34.69
2023-02-14T12:46:20.621Z,35.27
2023-02-14T12:47:20.621Z,31.83
2023-02-14T12:48:20.582Z,29.67
2023-02-14T12:49:20.569Z,32.50
2023-02-14T12:50:20.591Z,25.92
2023-02-14T12:51:20.556Z,29.36
2023-02-14T12:52:20.575Z,41.43
2023-02-14T12:53:20.607Z,40.26
2023-02-14T12:54:20.623Z,35.60
2023-02-14T12:55:20.647Z,31.43
2023-02-14T12:56:20.677Z,33.80
2023-02-14T12:57:20.661Z,31.26
2023-02-14T12:58:20.700Z,30.23
2023-02-14T12:59:20.755Z,34.73
2023-02-14T13:00:20.809Z,32.56
2023-02-14T13:01:28.558Z,36.30
2023-02-14T13:02:21.787Z,36.48
2023-02-14T13:03:20.766Z,36.63
2023-02-14T13:04:20.748Z,36.07
2023-02-14T13:05:20.695Z,39.45
2023-02-14T13:06:20.706Z,41.22
2023-02-14T13:07:20.683Z,43.21
2023-02-14T13:08:20.638Z,41.35
2023-02-14T13:09:20.659Z,42.13
2023-02-14T13:10:20.625Z,31.79
2023-02-14T13:11:20.579Z,34.43
2023-02-14T13:12:20.619Z,30.76
2023-02-14T13:13:20.572Z,31.10
2023-02-14T13:14:20.611Z,33.26
2023-02-14T13:15:20.533Z,35.44
2023-02-14T13:16:20.545Z,34.71
2023-02-14T13:17:20.541Z,33.02
2023-02-14T13:18:20.504Z,35.30
2023-02-14T13:19:20.474Z,39.05
2023-02-14T13:20:20.490Z,43.77
2023-02-14T13:21:20.481Z,55.25
2023-02-14T13:22:20.440Z,77.66
2023-02-14T13:23:20.396Z,115.55
2023-02-14T13:24:20.406Z,161.51
2023-02-14T13:25:20.394Z,185.85
2023-02-14T13:26:20.379Z,199.40
2023-02-14T13:27:22.133Z,203.28
2023-02-14T13:28:20.326Z,212.91
2023-02-14T13:29:20.329Z,210.07
2023-02-14T13:30:20.442Z,207.42
2023-02-14T13:31:20.382Z,205.15
2023-02-14T13:32:20.287Z,205.33
2023-02-14T13:33:20.258Z,216.68
2023-02-14T13:34:20.291Z,213.76
2023-02-14T13:35:20.251Z,215.73
2023-02-14T13:36:20.245Z,206.13
2023-02-14T13:37:20.265Z,195.84
2023-02-14T13:38:20.235Z,185.57
2023-02-14T13:39:20.248Z,180.20
2023-02-14T13:40:20.233Z,188.50
2023-02-14T13:41:20.228Z,184.16
2023-02-14T13:42:20.274Z,178.79
2023-02-14T13:43:20.238Z,173.75
2023-02-14T13:44:20.252Z,173.52
2023-02-14T13:45:20.252Z,169.81
2023-02-14T13:46:20.306Z,170.10
2023-02-14T13:47:20.279Z,170.26
2023-02-14T13:48:20.276Z,170.80
2023-02-14T13:49:20.245Z,171.41
2023-02-14T13:50:20.233Z,176.44
2023-02-14T13:51:20.242Z,172.92
2023-02-14T13:52:20.404Z,177.28
2023-02-14T13:53:20.241Z,190.26
2023-02-14T13:54:20.238Z,183.61
2023-02-14T13:55:20.255Z,177.10
2023-02-14T13:56:20.235Z,181.19
2023-02-14T13:57:20.220Z,176.79
2023-02-14T13:58:20.236Z,174.15
2023-02-14T13:59:20.212Z,171.52
2023-02-14T14:00:20.216Z,173.84
2023-02-14T14:01:20.266Z,174.11
2023-02-14T14:02:20.264Z,180.81
2023-02-14T14:03:20.198Z,172.19
2023-02-14T14:04:20.236Z,172.12
2023-02-14T14:05:20.220Z,167.60
2023-02-14T14:06:20.224Z,170.78
2023-02-14T14:07:20.224Z,165.19
2023-02-14T14:08:20.282Z,165.11
2023-02-14T14:09:20.241Z,168.52
2023-02-14T14:10:20.216Z,162.14
2023-02-14T14:11:20.215Z,159.89
2023-02-14T14:12:20.217Z,159.79
2023-02-14T14:13:20.296Z,171.65
2023-02-14T14:14:20.347Z,173.78
2023-02-14T14:15:20.401Z,169.21
2023-02-14T14:16:20.510Z,159.21
2023-02-14T14:17:20.514Z,165.93
2023-02-14T14:18:20.492Z,156.27
2023-02-14T14:19:20.524Z,156.63
2023-02-14T14:20:20.652Z,157.82
2023-02-14T14:21:20.539Z,152.55
2023-02-14T14:22:20.527Z,150.49
2023-02-14T14:23:20.554Z,157.15
2023-02-14T14:24:20.509Z,156.03
2023-02-14T14:25:20.529Z,151.21
2023-02-14T14:26:20.521Z,150.40
2023-02-14T14:27:20.504Z,150.29
2023-02-14T14:28:20.618Z,149.52
2023-02-14T14:29:20.519Z,148.99
2023-02-14T14:30:20.581Z,150.20
2023-02-14T14:31:20.708Z,161.64